sensor_id;sensor_type;location;lat;lon;timestamp;P1;durP1;ratioP1;P2;durP2;ratioP2
16450;SDS011;12243;42.708;23.310;2022-11-22T00:00:15;3.13;;;2.93;;
16450;SDS011;12243;42.708;23.310;2022-11-22T00:02:43;3.27;;;3.17;;
16450;SDS011;12243;42.708;23.310;2022-11-22T00:05:10;6.17;;;5.23;;
16450;SDS011;12243;42.708;23.310;2022-11-22T00:07:37;7.37;;;6.07;;
16450;SDS011;12243;42.708;23.310;2022-11-22T00:10:05;4.43;;;3.37;;
16450;SDS011;12243;42.708;23.310;2022-11-22T00:12:34;3.23;;;3.10;;
16450;SDS011;12243;42.708;23.310;2022-11-22T00:15:03;3.90;;;3.70;;
16450;SDS011;12243;42.708;23.310;2022-11-22T00:17:30;5.77;;;5.43;;
16450;SDS011;12243;42.708;23.310;2022-11-22T00:19:57;4.53;;;4.23;;
16450;SDS011;12243;42.708;23.310;2022-11-22T00:22:24;3.53;;;3.40;;
16450;SDS011;12243;42.708;23.310;2022-11-22T00:24:51;6.80;;;6.30;;
16450;SDS011;12243;42.708;23.310;2022-11-22T00:27:19;3.37;;;3.27;;
16450;SDS011;12243;42.708;23.310;2022-11-22T00:29:46;2.93;;;2.83;;
16450;SDS011;12243;42.708;23.310;2022-11-22T00:32:14;3.03;;;2.93;;
16450;SDS011;12243;42.708;23.310;2022-11-22T00:34:41;4.03;;;3.83;;
16450;SDS011;12243;42.708;23.310;2022-11-22T00:37:08;3.47;;;3.27;;
16450;SDS011;12243;42.708;23.310;2022-11-22T00:39:35;3.40;;;3.20;;
16450;SDS011;12243;42.708;23.310;2022-11-22T00:42:02;3.40;;;3.20;;
16450;SDS011;12243;42.708;23.310;2022-11-22T00:44:29;2.93;;;2.83;;
16450;SDS011;12243;42.708;23.310;2022-11-22T00:46:56;2.97;;;2.87;;
16450;SDS011;12243;42.708;23.310;2022-11-22T00:49:24;3.57;;;3.37;;
16450;SDS011;12243;42.708;23.310;2022-11-22T00:51:51;3.50;;;3.30;;
16450;SDS011;12243;42.708;23.310;2022-11-22T00:54:18;3.37;;;3.20;;
16450;SDS011;12243;42.708;23.310;2022-11-22T00:56:45;4.07;;;3.67;;
16450;SDS011;12243;42.708;23.310;2022-11-22T00:59:12;3.57;;;3.37;;
16450;SDS011;12243;42.708;23.310;2022-11-22T01:01:39;3.83;;;3.63;;
16450;SDS011;12243;42.708;23.310;2022-11-22T01:04:06;3.97;;;3.77;;
16450;SDS011;12243;42.708;23.310;2022-11-22T01:06:34;3.80;;;3.60;;
16450;SDS011;12243;42.708;23.310;2022-11-22T01:09:01;4.10;;;3.70;;
16450;SDS011;12243;42.708;23.310;2022-11-22T01:11:27;4.10;;;3.80;;
16450;SDS011;12243;42.708;23.310;2022-11-22T01:13:54;3.90;;;3.60;;
16450;SDS011;12243;42.708;23.310;2022-11-22T01:16:21;3.60;;;3.40;;
16450;SDS011;12243;42.708;23.310;2022-11-22T01:18:48;3.87;;;3.67;;
16450;SDS011;12243;42.708;23.310;2022-11-22T01:21:15;3.77;;;3.57;;
16450;SDS011;12243;42.708;23.310;2022-11-22T01:23:43;3.77;;;3.57;;
16450;SDS011;12243;42.708;23.310;2022-11-22T01:26:12;3.47;;;3.27;;
16450;SDS011;12243;42.708;23.310;2022-11-22T01:28:41;3.87;;;3.67;;
16450;SDS011;12243;42.708;23.310;2022-11-22T01:31:08;3.47;;;3.27;;
16450;SDS011;12243;42.708;23.310;2022-11-22T01:33:35;3.63;;;3.37;;
16450;SDS011;12243;42.708;23.310;2022-11-22T01:36:02;3.60;;;3.40;;
16450;SDS011;12243;42.708;23.310;2022-11-22T01:38:29;3.00;;;2.90;;
16450;SDS011;12243;42.708;23.310;2022-11-22T01:40:58;3.37;;;3.17;;
16450;SDS011;12243;42.708;23.310;2022-11-22T01:43:29;3.03;;;2.90;;
16450;SDS011;12243;42.708;23.310;2022-11-22T01:45:56;4.07;;;3.83;;
16450;SDS011;12243;42.708;23.310;2022-11-22T01:48:27;2.97;;;2.77;;
16450;SDS011;12243;42.708;23.310;2022-11-22T01:51:04;3.33;;;3.13;;
16450;SDS011;12243;42.708;23.310;2022-11-22T01:53:36;3.57;;;3.37;;
16450;SDS011;12243;42.708;23.310;2022-11-22T01:56:08;3.90;;;3.60;;
16450;SDS011;12243;42.708;23.310;2022-11-22T01:58:37;3.77;;;3.57;;
16450;SDS011;12243;42.708;23.310;2022-11-22T02:01:07;3.97;;;3.63;;
16450;SDS011;12243;42.708;23.310;2022-11-22T02:03:35;3.93;;;3.73;;
16450;SDS011;12243;42.708;23.310;2022-11-22T02:06:07;4.00;;;3.77;;
16450;SDS011;12243;42.708;23.310;2022-11-22T02:08:35;4.73;;;4.23;;
16450;SDS011;12243;42.708;23.310;2022-11-22T02:11:08;3.93;;;3.73;;
16450;SDS011;12243;42.708;23.310;2022-11-22T02:13:38;4.20;;;4.00;;
16450;SDS011;12243;42.708;23.310;2022-11-22T02:16:08;5.37;;;4.97;;
16450;SDS011;12243;42.708;23.310;2022-11-22T02:18:35;4.07;;;3.80;;
16450;SDS011;12243;42.708;23.310;2022-11-22T02:21:03;4.37;;;4.07;;
16450;SDS011;12243;42.708;23.310;2022-11-22T02:23:33;3.90;;;3.70;;
16450;SDS011;12243;42.708;23.310;2022-11-22T02:26:12;4.00;;;3.80;;
16450;SDS011;12243;42.708;23.310;2022-11-22T02:28:40;4.23;;;4.03;;
16450;SDS011;12243;42.708;23.310;2022-11-22T02:31:06;4.33;;;4.03;;
16450;SDS011;12243;42.708;23.310;2022-11-22T02:33:33;4.57;;;4.23;;
16450;SDS011;12243;42.708;23.310;2022-11-22T02:36:00;3.80;;;3.60;;
16450;SDS011;12243;42.708;23.310;2022-11-22T02:38:28;4.17;;;3.93;;
16450;SDS011;12243;42.708;23.310;2022-11-22T02:40:59;4.77;;;4.37;;
16450;SDS011;12243;42.708;23.310;2022-11-22T02:43:30;4.50;;;4.20;;
16450;SDS011;12243;42.708;23.310;2022-11-22T02:46:03;4.43;;;4.13;;
16450;SDS011;12243;42.708;23.310;2022-11-22T02:48:37;4.53;;;4.23;;
16450;SDS011;12243;42.708;23.310;2022-11-22T02:51:07;5.23;;;4.83;;
16450;SDS011;12243;42.708;23.310;2022-11-22T02:53:35;5.00;;;4.63;;
16450;SDS011;12243;42.708;23.310;2022-11-22T02:56:05;5.37;;;4.97;;
16450;SDS011;12243;42.708;23.310;2022-11-22T02:58:34;5.27;;;4.97;;
16450;SDS011;12243;42.708;23.310;2022-11-22T03:01:00;5.07;;;4.70;;
16450;SDS011;12243;42.708;23.310;2022-11-22T03:03:27;5.17;;;4.77;;
16450;SDS011;12243;42.708;23.310;2022-11-22T03:05:55;5.60;;;5.10;;
16450;SDS011;12243;42.708;23.310;2022-11-22T03:08:22;6.03;;;5.53;;
16450;SDS011;12243;42.708;23.310;2022-11-22T03:10:48;5.93;;;5.43;;
16450;SDS011;12243;42.708;23.310;2022-11-22T03:13:15;5.70;;;5.30;;
16450;SDS011;12243;42.708;23.310;2022-11-22T03:15:47;8.37;;;5.50;;
16450;SDS011;12243;42.708;23.310;2022-11-22T03:18:15;6.17;;;5.60;;
16450;SDS011;12243;42.708;23.310;2022-11-22T03:20:42;5.63;;;5.13;;
16450;SDS011;12243;42.708;23.310;2022-11-22T03:23:08;8.23;;;5.50;;
16450;SDS011;12243;42.708;23.310;2022-11-22T03:25:35;6.07;;;5.53;;
16450;SDS011;12243;42.708;23.310;2022-11-22T03:28:03;6.40;;;5.73;;
16450;SDS011;12243;42.708;23.310;2022-11-22T03:30:30;6.47;;;5.90;;
16450;SDS011;12243;42.708;23.310;2022-11-22T03:32:58;8.70;;;7.47;;
16450;SDS011;12243;42.708;23.310;2022-11-22T03:35:25;10.43;;;8.10;;
16450;SDS011;12243;42.708;23.310;2022-11-22T03:37:52;7.77;;;6.73;;
16450;SDS011;12243;42.708;23.310;2022-11-22T03:40:19;6.83;;;6.10;;
16450;SDS011;12243;42.708;23.310;2022-11-22T03:42:46;6.27;;;5.63;;
16450;SDS011;12243;42.708;23.310;2022-11-22T03:45:13;8.73;;;6.93;;
16450;SDS011;12243;42.708;23.310;2022-11-22T03:47:39;9.70;;;7.73;;
16450;SDS011;12243;42.708;23.310;2022-11-22T03:50:08;31.77;;;17.90;;
16450;SDS011;12243;42.708;23.310;2022-11-22T03:52:35;31.20;;;17.40;;
16450;SDS011;12243;42.708;23.310;2022-11-22T03:55:07;21.83;;;13.90;;
16450;SDS011;12243;42.708;23.310;2022-11-22T03:57:34;18.27;;;11.77;;
16450;SDS011;12243;42.708;23.310;2022-11-22T04:00:02;21.87;;;12.30;;
16450;SDS011;12243;42.708;23.310;2022-11-22T04:02:37;11.20;;;9.23;;
16450;SDS011;12243;42.708;23.310;2022-11-22T04:05:04;11.33;;;8.73;;
16450;SDS011;12243;42.708;23.310;2022-11-22T04:07:33;11.97;;;8.33;;
16450;SDS011;12243;42.708;23.310;2022-11-22T04:10:00;9.10;;;8.00;;
16450;SDS011;12243;42.708;23.310;2022-11-22T04:12:27;8.43;;;7.57;;
16450;SDS011;12243;42.708;23.310;2022-11-22T04:14:54;9.10;;;8.03;;
16450;SDS011;12243;42.708;23.310;2022-11-22T04:17:32;8.17;;;7.23;;
16450;SDS011;12243;42.708;23.310;2022-11-22T04:20:13;8.30;;;7.40;;
16450;SDS011;12243;42.708;23.310;2022-11-22T04:23:01;8.70;;;7.47;;
16450;SDS011;12243;42.708;23.310;2022-11-22T04:25:30;11.40;;;8.40;;
16450;SDS011;12243;42.708;23.310;2022-11-22T04:27:58;7.63;;;6.93;;
16450;SDS011;12243;42.708;23.310;2022-11-22T04:30:26;7.73;;;6.97;;
16450;SDS011;12243;42.708;23.310;2022-11-22T04:33:07;7.17;;;6.57;;
16450;SDS011;12243;42.708;23.310;2022-11-22T04:35:35;12.93;;;11.43;;
16450;SDS011;12243;42.708;23.310;2022-11-22T04:38:04;13.17;;;11.87;;
16450;SDS011;12243;42.708;23.310;2022-11-22T04:40:31;10.83;;;8.70;;
16450;SDS011;12243;42.708;23.310;2022-11-22T04:42:58;9.97;;;8.93;;
16450;SDS011;12243;42.708;23.310;2022-11-22T04:45:42;8.30;;;7.50;;
16450;SDS011;12243;42.708;23.310;2022-11-22T04:48:13;7.70;;;7.00;;
16450;SDS011;12243;42.708;23.310;2022-11-22T04:50:41;7.87;;;7.13;;
16450;SDS011;12243;42.708;23.310;2022-11-22T04:53:27;8.40;;;7.60;;
16450;SDS011;12243;42.708;23.310;2022-11-22T04:55:55;31.70;;;26.00;;
16450;SDS011;12243;42.708;23.310;2022-11-22T04:58:22;10.23;;;9.23;;
16450;SDS011;12243;42.708;23.310;2022-11-22T05:00:51;12.70;;;10.93;;
16450;SDS011;12243;42.708;23.310;2022-11-22T05:03:21;21.47;;;16.90;;
16450;SDS011;12243;42.708;23.310;2022-11-22T05:05:48;8.60;;;7.77;;
16450;SDS011;12243;42.708;23.310;2022-11-22T05:08:15;8.43;;;7.63;;
16450;SDS011;12243;42.708;23.310;2022-11-22T05:10:43;9.07;;;7.13;;
16450;SDS011;12243;42.708;23.310;2022-11-22T05:13:23;8.70;;;7.90;;
16450;SDS011;12243;42.708;23.310;2022-11-22T05:15:51;8.57;;;7.73;;
16450;SDS011;12243;42.708;23.310;2022-11-22T05:18:19;9.13;;;8.27;;
16450;SDS011;12243;42.708;23.310;2022-11-22T05:20:46;10.87;;;8.47;;
16450;SDS011;12243;42.708;23.310;2022-11-22T05:23:14;10.27;;;8.70;;
16450;SDS011;12243;42.708;23.310;2022-11-22T05:26:00;10.33;;;8.93;;
16450;SDS011;12243;42.708;23.310;2022-11-22T05:28:27;12.37;;;8.50;;
16450;SDS011;12243;42.708;23.310;2022-11-22T05:30:54;10.03;;;8.57;;
16450;SDS011;12243;42.708;23.310;2022-11-22T05:33:22;10.17;;;8.97;;
16450;SDS011;12243;42.708;23.310;2022-11-22T05:35:48;9.17;;;8.20;;
16450;SDS011;12243;42.708;23.310;2022-11-22T05:38:16;9.70;;;8.70;;
16450;SDS011;12243;42.708;23.310;2022-11-22T05:40:42;11.07;;;9.03;;
16450;SDS011;12243;42.708;23.310;2022-11-22T05:43:11;9.53;;;8.53;;
16450;SDS011;12243;42.708;23.310;2022-11-22T05:45:37;10.37;;;8.70;;
16450;SDS011;12243;42.708;23.310;2022-11-22T05:48:04;11.67;;;9.33;;
16450;SDS011;12243;42.708;23.310;2022-11-22T05:50:31;14.53;;;10.47;;
16450;SDS011;12243;42.708;23.310;2022-11-22T05:53:00;12.30;;;10.53;;
16450;SDS011;12243;42.708;23.310;2022-11-22T05:55:27;12.70;;;9.57;;
16450;SDS011;12243;42.708;23.310;2022-11-22T05:57:54;11.43;;;9.83;;
16450;SDS011;12243;42.708;23.310;2022-11-22T06:00:23;11.40;;;10.10;;
16450;SDS011;12243;42.708;23.310;2022-11-22T06:02:50;11.83;;;10.63;;
16450;SDS011;12243;42.708;23.310;2022-11-22T06:05:17;10.50;;;9.37;;
16450;SDS011;12243;42.708;23.310;2022-11-22T06:07:44;13.13;;;9.83;;
16450;SDS011;12243;42.708;23.310;2022-11-22T06:10:11;10.60;;;9.50;;
16450;SDS011;12243;42.708;23.310;2022-11-22T06:12:38;10.47;;;9.37;;
16450;SDS011;12243;42.708;23.310;2022-11-22T06:15:05;12.13;;;9.73;;
16450;SDS011;12243;42.708;23.310;2022-11-22T06:17:34;10.67;;;9.57;;
16450;SDS011;12243;42.708;23.310;2022-11-22T06:20:01;37.63;;;18.47;;
16450;SDS011;12243;42.708;23.310;2022-11-22T06:22:32;27.60;;;16.07;;
16450;SDS011;12243;42.708;23.310;2022-11-22T06:24:59;20.13;;;12.70;;
16450;SDS011;12243;42.708;23.310;2022-11-22T06:27:26;12.20;;;10.23;;
16450;SDS011;12243;42.708;23.310;2022-11-22T06:29:53;11.43;;;9.53;;
16450;SDS011;12243;42.708;23.310;2022-11-22T06:32:20;10.07;;;9.03;;
16450;SDS011;12243;42.708;23.310;2022-11-22T06:34:48;10.23;;;9.10;;
16450;SDS011;12243;42.708;23.310;2022-11-22T06:37:15;10.27;;;9.27;;
16450;SDS011;12243;42.708;23.310;2022-11-22T06:39:42;8.43;;;7.63;;
16450;SDS011;12243;42.708;23.310;2022-11-22T06:42:09;9.60;;;8.60;;
16450;SDS011;12243;42.708;23.310;2022-11-22T06:44:35;8.93;;;7.23;;
16450;SDS011;12243;42.708;23.310;2022-11-22T06:47:02;9.40;;;7.20;;
16450;SDS011;12243;42.708;23.310;2022-11-22T06:49:29;8.63;;;7.70;;
16450;SDS011;12243;42.708;23.310;2022-11-22T06:51:57;7.93;;;7.13;;
16450;SDS011;12243;42.708;23.310;2022-11-22T06:54:24;19.00;;;14.17;;
16450;SDS011;12243;42.708;23.310;2022-11-22T06:56:51;28.50;;;20.97;;
16450;SDS011;12243;42.708;23.310;2022-11-22T06:59:18;35.90;;;21.03;;
16450;SDS011;12243;42.708;23.310;2022-11-22T07:01:45;31.63;;;20.17;;
16450;SDS011;12243;42.708;23.310;2022-11-22T07:04:11;24.13;;;18.10;;
16450;SDS011;12243;42.708;23.310;2022-11-22T07:06:38;25.93;;;18.97;;
16450;SDS011;12243;42.708;23.310;2022-11-22T07:09:08;28.00;;;20.63;;
16450;SDS011;12243;42.708;23.310;2022-11-22T07:11:36;32.77;;;22.80;;
16450;SDS011;12243;42.708;23.310;2022-11-22T07:14:03;33.87;;;23.83;;
16450;SDS011;12243;42.708;23.310;2022-11-22T07:16:31;25.27;;;20.47;;
16450;SDS011;12243;42.708;23.310;2022-11-22T07:18:58;27.40;;;20.10;;
16450;SDS011;12243;42.708;23.310;2022-11-22T07:21:25;29.33;;;20.07;;
16450;SDS011;12243;42.708;23.310;2022-11-22T07:23:53;23.83;;;18.90;;
16450;SDS011;12243;42.708;23.310;2022-11-22T07:26:23;23.83;;;18.40;;
16450;SDS011;12243;42.708;23.310;2022-11-22T07:28:52;19.57;;;13.80;;
16450;SDS011;12243;42.708;23.310;2022-11-22T07:31:19;34.53;;;19.67;;
16450;SDS011;12243;42.708;23.310;2022-11-22T07:33:46;29.63;;;18.70;;
16450;SDS011;12243;42.708;23.310;2022-11-22T07:36:14;15.20;;;11.53;;
16450;SDS011;12243;42.708;23.310;2022-11-22T07:38:42;19.07;;;15.50;;
16450;SDS011;12243;42.708;23.310;2022-11-22T07:41:09;15.10;;;10.33;;
16450;SDS011;12243;42.708;23.310;2022-11-22T07:43:38;10.20;;;9.13;;
16450;SDS011;12243;42.708;23.310;2022-11-22T07:46:07;12.87;;;10.17;;
16450;SDS011;12243;42.708;23.310;2022-11-22T07:48:41;12.23;;;8.53;;
16450;SDS011;12243;42.708;23.310;2022-11-22T07:51:08;11.20;;;9.53;;
16450;SDS011;12243;42.708;23.310;2022-11-22T07:53:35;12.73;;;9.30;;
16450;SDS011;12243;42.708;23.310;2022-11-22T07:56:02;9.13;;;8.33;;
16450;SDS011;12243;42.708;23.310;2022-11-22T07:58:30;9.37;;;8.50;;
16450;SDS011;12243;42.708;23.310;2022-11-22T08:00:59;8.83;;;7.67;;
16450;SDS011;12243;42.708;23.310;2022-11-22T08:03:30;10.03;;;9.03;;
16450;SDS011;12243;42.708;23.310;2022-11-22T08:05:57;10.97;;;9.87;;
16450;SDS011;12243;42.708;23.310;2022-11-22T08:08:27;9.47;;;8.57;;
16450;SDS011;12243;42.708;23.310;2022-11-22T08:11:06;8.77;;;7.87;;
16450;SDS011;12243;42.708;23.310;2022-11-22T08:13:39;8.60;;;7.80;;
16450;SDS011;12243;42.708;23.310;2022-11-22T08:16:09;11.63;;;8.07;;
16450;SDS011;12243;42.708;23.310;2022-11-22T08:18:37;11.07;;;9.37;;
16450;SDS011;12243;42.708;23.310;2022-11-22T08:21:08;12.50;;;10.43;;
16450;SDS011;12243;42.708;23.310;2022-11-22T08:23:35;14.30;;;11.10;;
16450;SDS011;12243;42.708;23.310;2022-11-22T08:26:05;13.73;;;12.30;;
16450;SDS011;12243;42.708;23.310;2022-11-22T08:28:34;18.47;;;14.27;;
16450;SDS011;12243;42.708;23.310;2022-11-22T08:31:08;25.80;;;14.73;;
16450;SDS011;12243;42.708;23.310;2022-11-22T08:33:37;18.50;;;15.17;;
16450;SDS011;12243;42.708;23.310;2022-11-22T08:36:05;18.00;;;14.83;;
16450;SDS011;12243;42.708;23.310;2022-11-22T08:38:33;22.03;;;16.33;;
16450;SDS011;12243;42.708;23.310;2022-11-22T08:41:00;29.30;;;18.17;;
16450;SDS011;12243;42.708;23.310;2022-11-22T08:43:28;39.17;;;24.53;;
16450;SDS011;12243;42.708;23.310;2022-11-22T08:45:55;36.13;;;23.20;;
16450;SDS011;12243;42.708;23.310;2022-11-22T08:48:25;23.27;;;16.73;;
16450;SDS011;12243;42.708;23.310;2022-11-22T08:50:52;26.17;;;17.63;;
16450;SDS011;12243;42.708;23.310;2022-11-22T08:53:21;16.93;;;14.80;;
16450;SDS011;12243;42.708;23.310;2022-11-22T08:55:48;20.87;;;15.17;;
16450;SDS011;12243;42.708;23.310;2022-11-22T08:58:15;21.03;;;16.87;;
16450;SDS011;12243;42.708;23.310;2022-11-22T09:00:43;16.87;;;14.83;;
16450;SDS011;12243;42.708;23.310;2022-11-22T09:03:10;16.03;;;13.83;;
16450;SDS011;12243;42.708;23.310;2022-11-22T09:05:38;19.27;;;15.93;;
16450;SDS011;12243;42.708;23.310;2022-11-22T09:08:05;15.90;;;13.33;;
16450;SDS011;12243;42.708;23.310;2022-11-22T09:10:32;15.33;;;12.67;;
16450;SDS011;12243;42.708;23.310;2022-11-22T09:12:58;16.33;;;14.37;;
16450;SDS011;12243;42.708;23.310;2022-11-22T09:15:25;19.23;;;14.23;;
16450;SDS011;12243;42.708;23.310;2022-11-22T09:17:58;38.33;;;26.57;;
16450;SDS011;12243;42.708;23.310;2022-11-22T09:20:26;14.47;;;12.20;;
16450;SDS011;12243;42.708;23.310;2022-11-22T09:22:54;17.13;;;12.20;;
16450;SDS011;12243;42.708;23.310;2022-11-22T09:25:21;14.40;;;12.37;;
16450;SDS011;12243;42.708;23.310;2022-11-22T09:27:48;13.10;;;11.80;;
16450;SDS011;12243;42.708;23.310;2022-11-22T09:30:15;11.87;;;10.67;;
16450;SDS011;12243;42.708;23.310;2022-11-22T09:32:42;13.33;;;11.40;;
16450;SDS011;12243;42.708;23.310;2022-11-22T09:35:09;15.70;;;10.97;;
16450;SDS011;12243;42.708;23.310;2022-11-22T09:37:36;12.73;;;11.43;;
16450;SDS011;12243;42.708;23.310;2022-11-22T09:40:05;13.80;;;12.03;;
16450;SDS011;12243;42.708;23.310;2022-11-22T09:45:31;21.63;;;15.57;;
16450;SDS011;12243;42.708;23.310;2022-11-22T09:48:09;16.73;;;13.83;;
16450;SDS011;12243;42.708;23.310;2022-11-22T09:50:47;21.07;;;16.33;;
16450;SDS011;12243;42.708;23.310;2022-11-22T09:53:22;17.30;;;15.47;;
16450;SDS011;12243;42.708;23.310;2022-11-22T09:56:02;13.60;;;11.63;;
16450;SDS011;12243;42.708;23.310;2022-11-22T09:58:38;16.77;;;14.43;;
16450;SDS011;12243;42.708;23.310;2022-11-22T10:01:10;13.90;;;11.37;;
16450;SDS011;12243;42.708;23.310;2022-11-22T10:03:44;16.23;;;13.90;;
16450;SDS011;12243;42.708;23.310;2022-11-22T10:06:16;24.50;;;20.07;;
16450;SDS011;12243;42.708;23.310;2022-11-22T10:08:51;16.07;;;12.53;;
16450;SDS011;12243;42.708;23.310;2022-11-22T10:11:30;14.27;;;11.97;;
16450;SDS011;12243;42.708;23.310;2022-11-22T10:14:02;12.77;;;11.47;;
16450;SDS011;12243;42.708;23.310;2022-11-22T10:16:34;13.77;;;12.10;;
16450;SDS011;12243;42.708;23.310;2022-11-22T10:19:09;11.80;;;10.60;;
16450;SDS011;12243;42.708;23.310;2022-11-22T10:21:41;14.93;;;11.50;;
16450;SDS011;12243;42.708;23.310;2022-11-22T10:24:12;14.67;;;11.83;;
16450;SDS011;12243;42.708;23.310;2022-11-22T10:26:43;15.70;;;12.67;;
16450;SDS011;12243;42.708;23.310;2022-11-22T10:29:13;12.50;;;11.33;;
16450;SDS011;12243;42.708;23.310;2022-11-22T10:31:57;14.70;;;11.90;;
16450;SDS011;12243;42.708;23.310;2022-11-22T10:34:34;12.83;;;11.47;;
16450;SDS011;12243;42.708;23.310;2022-11-22T10:37:12;37.93;;;23.80;;
16450;SDS011;12243;42.708;23.310;2022-11-22T10:39:53;16.13;;;12.10;;
16450;SDS011;12243;42.708;23.310;2022-11-22T10:42:37;11.10;;;10.10;;
16450;SDS011;12243;42.708;23.310;2022-11-22T10:45:20;10.70;;;9.37;;
16450;SDS011;12243;42.708;23.310;2022-11-22T10:47:58;10.63;;;9.53;;
16450;SDS011;12243;42.708;23.310;2022-11-22T10:50:38;10.40;;;9.23;;
16450;SDS011;12243;42.708;23.310;2022-11-22T10:53:17;9.50;;;8.60;;
16450;SDS011;12243;42.708;23.310;2022-11-22T10:55:53;9.47;;;8.57;;
16450;SDS011;12243;42.708;23.310;2022-11-22T10:58:33;11.43;;;9.20;;
16450;SDS011;12243;42.708;23.310;2022-11-22T11:01:23;9.97;;;8.97;;
16450;SDS011;12243;42.708;23.310;2022-11-22T11:03:58;9.93;;;8.70;;
16450;SDS011;12243;42.708;23.310;2022-11-22T11:06:27;12.97;;;8.87;;
16450;SDS011;12243;42.708;23.310;2022-11-22T11:09:01;11.40;;;9.47;;
16450;SDS011;12243;42.708;23.310;2022-11-22T11:11:32;10.13;;;9.00;;
16450;SDS011;12243;42.708;23.310;2022-11-22T11:14:05;9.57;;;8.57;;
16450;SDS011;12243;42.708;23.310;2022-11-22T11:16:37;10.67;;;8.90;;
16450;SDS011;12243;42.708;23.310;2022-11-22T11:19:16;11.90;;;9.23;;
16450;SDS011;12243;42.708;23.310;2022-11-22T11:21:44;11.27;;;8.93;;
16450;SDS011;12243;42.708;23.310;2022-11-22T11:24:13;11.20;;;8.87;;
16450;SDS011;12243;42.708;23.310;2022-11-22T11:26:42;10.37;;;9.17;;
16450;SDS011;12243;42.708;23.310;2022-11-22T11:29:35;15.90;;;12.67;;
16450;SDS011;12243;42.708;23.310;2022-11-22T11:32:11;24.70;;;16.03;;
16450;SDS011;12243;42.708;23.310;2022-11-22T11:34:41;12.07;;;10.87;;
16450;SDS011;12243;42.708;23.310;2022-11-22T11:37:17;13.30;;;11.03;;
16450;SDS011;12243;42.708;23.310;2022-11-22T11:39:49;16.90;;;10.00;;
16450;SDS011;12243;42.708;23.310;2022-11-22T11:42:20;15.80;;;12.80;;
16450;SDS011;12243;42.708;23.310;2022-11-22T11:44:50;17.83;;;13.90;;
16450;SDS011;12243;42.708;23.310;2022-11-22T11:47:18;13.77;;;10.97;;
16450;SDS011;12243;42.708;23.310;2022-11-22T11:49:49;15.30;;;11.50;;
16450;SDS011;12243;42.708;23.310;2022-11-22T11:52:17;20.27;;;18.10;;
16450;SDS011;12243;42.708;23.310;2022-11-22T11:54:48;20.13;;;14.90;;
16450;SDS011;12243;42.708;23.310;2022-11-22T11:57:19;13.63;;;12.13;;
16450;SDS011;12243;42.708;23.310;2022-11-22T12:00:18;19.80;;;14.30;;
16450;SDS011;12243;42.708;23.310;2022-11-22T12:02:48;15.73;;;12.33;;
16450;SDS011;12243;42.708;23.310;2022-11-22T12:05:24;17.03;;;12.03;;
16450;SDS011;12243;42.708;23.310;2022-11-22T12:07:53;13.03;;;11.17;;
16450;SDS011;12243;42.708;23.310;2022-11-22T12:10:28;12.03;;;10.60;;
16450;SDS011;12243;42.708;23.310;2022-11-22T12:12:59;11.13;;;9.97;;
16450;SDS011;12243;42.708;23.310;2022-11-22T12:15:34;12.37;;;10.27;;
16450;SDS011;12243;42.708;23.310;2022-11-22T12:18:21;15.60;;;10.60;;
16450;SDS011;12243;42.708;23.310;2022-11-22T12:20:57;14.43;;;11.27;;
16450;SDS011;12243;42.708;23.310;2022-11-22T12:23:32;15.80;;;10.87;;
16450;SDS011;12243;42.708;23.310;2022-11-22T12:26:03;23.23;;;16.80;;
16450;SDS011;12243;42.708;23.310;2022-11-22T12:28:31;12.97;;;10.17;;
16450;SDS011;12243;42.708;23.310;2022-11-22T12:31:01;14.73;;;11.37;;
16450;SDS011;12243;42.708;23.310;2022-11-22T12:33:33;12.80;;;10.80;;
16450;SDS011;12243;42.708;23.310;2022-11-22T12:36:02;26.90;;;16.73;;
16450;SDS011;12243;42.708;23.310;2022-11-22T12:38:36;16.33;;;12.47;;
16450;SDS011;12243;42.708;23.310;2022-11-22T12:41:06;13.93;;;12.43;;
16450;SDS011;12243;42.708;23.310;2022-11-22T12:43:39;18.53;;;13.87;;
16450;SDS011;12243;42.708;23.310;2022-11-22T12:46:17;13.63;;;10.93;;
16450;SDS011;12243;42.708;23.310;2022-11-22T12:48:47;12.47;;;10.30;;
16450;SDS011;12243;42.708;23.310;2022-11-22T12:51:19;14.90;;;10.60;;
16450;SDS011;12243;42.708;23.310;2022-11-22T12:53:53;13.60;;;11.03;;
16450;SDS011;12243;42.708;23.310;2022-11-22T12:56:24;18.13;;;12.37;;
16450;SDS011;12243;42.708;23.310;2022-11-22T12:58:56;14.97;;;11.53;;
16450;SDS011;12243;42.708;23.310;2022-11-22T13:01:31;19.10;;;13.87;;
16450;SDS011;12243;42.708;23.310;2022-11-22T13:04:09;27.17;;;16.80;;
16450;SDS011;12243;42.708;23.310;2022-11-22T13:06:43;24.57;;;16.03;;
16450;SDS011;12243;42.708;23.310;2022-11-22T13:09:17;22.90;;;15.23;;
16450;SDS011;12243;42.708;23.310;2022-11-22T13:11:48;21.93;;;15.60;;
16450;SDS011;12243;42.708;23.310;2022-11-22T13:14:21;26.90;;;17.47;;
16450;SDS011;12243;42.708;23.310;2022-11-22T13:16:57;22.30;;;16.33;;
16450;SDS011;12243;42.708;23.310;2022-11-22T13:19:24;23.83;;;17.77;;
16450;SDS011;12243;42.708;23.310;2022-11-22T13:22:06;24.40;;;20.13;;
16450;SDS011;12243;42.708;23.310;2022-11-22T13:24:40;30.37;;;21.00;;
16450;SDS011;12243;42.708;23.310;2022-11-22T13:27:19;28.70;;;20.10;;
16450;SDS011;12243;42.708;23.310;2022-11-22T13:29:53;26.70;;;19.97;;
16450;SDS011;12243;42.708;23.310;2022-11-22T13:32:26;33.00;;;22.37;;
16450;SDS011;12243;42.708;23.310;2022-11-22T13:35:06;33.53;;;22.67;;
16450;SDS011;12243;42.708;23.310;2022-11-22T13:37:48;25.10;;;18.30;;
16450;SDS011;12243;42.708;23.310;2022-11-22T13:40:21;22.73;;;17.83;;
16450;SDS011;12243;42.708;23.310;2022-11-22T13:45:56;37.73;;;24.10;;
16450;SDS011;12243;42.708;23.310;2022-11-22T13:54:37;30.43;;;20.60;;
16450;SDS011;12243;42.708;23.310;2022-11-22T14:03:23;31.33;;;19.57;;
16450;SDS011;12243;42.708;23.310;2022-11-22T14:05:59;28.73;;;19.40;;
16450;SDS011;12243;42.708;23.310;2022-11-22T14:08:41;28.83;;;20.73;;
16450;SDS011;12243;42.708;23.310;2022-11-22T14:11:15;30.33;;;21.70;;
16450;SDS011;12243;42.708;23.310;2022-11-22T14:13:58;31.20;;;22.33;;
16450;SDS011;12243;42.708;23.310;2022-11-22T14:16:33;34.80;;;23.27;;
16450;SDS011;12243;42.708;23.310;2022-11-22T14:19:17;33.40;;;23.07;;
16450;SDS011;12243;42.708;23.310;2022-11-22T14:22:06;31.77;;;24.63;;
16450;SDS011;12243;42.708;23.310;2022-11-22T14:24:47;32.53;;;23.37;;
16450;SDS011;12243;42.708;23.310;2022-11-22T14:27:33;36.33;;;25.80;;
16450;SDS011;12243;42.708;23.310;2022-11-22T14:30:10;33.60;;;24.10;;
16450;SDS011;12243;42.708;23.310;2022-11-22T14:32:41;33.43;;;25.03;;
16450;SDS011;12243;42.708;23.310;2022-11-22T14:35:20;32.93;;;24.53;;
16450;SDS011;12243;42.708;23.310;2022-11-22T14:37:56;36.33;;;24.17;;
16450;SDS011;12243;42.708;23.310;2022-11-22T14:40:48;39.63;;;31.43;;
16450;SDS011;12243;42.708;23.310;2022-11-22T14:43:27;33.63;;;25.63;;
16450;SDS011;12243;42.708;23.310;2022-11-22T14:45:59;35.27;;;25.80;;
16450;SDS011;12243;42.708;23.310;2022-11-22T14:48:36;34.87;;;25.97;;
16450;SDS011;12243;42.708;23.310;2022-11-22T14:51:14;29.70;;;22.73;;
16450;SDS011;12243;42.708;23.310;2022-11-22T14:53:48;30.67;;;21.67;;
16450;SDS011;12243;42.708;23.310;2022-11-22T14:56:23;32.63;;;22.63;;
16450;SDS011;12243;42.708;23.310;2022-11-22T14:58:57;29.13;;;22.27;;